Flight Track Log - Related Links

Times and Time Zones

All times are in EDT time to prevent confusion due to time zone crossing. See the ASQ4231 flight status page for this flight to view local times or setup timezone preferences in your user account.

Time Position Orientation Groundspeed Altitude Reporting Facility
EDT Latitude Longitude Course Direction KTS MPH feet Rate Location/Type
Mon 04:38:00 PM 23.9347 -108.1131 62° Northeast  Level FlightAware Approximate
Mon 04:39:00 PM 23.9785 -108.0215 62° Northeast  Level FlightAware Approximate
Mon 04:40:00 PM 24.0223 -107.9298 62° Northeast  Level FlightAware Approximate
Mon 04:41:00 PM 24.0660 -107.8381 62° Northeast  Level FlightAware Approximate
Mon 04:42:00 PM 24.1096 -107.7464 62° Northeast  Level FlightAware Approximate
Mon 04:43:00 PM 24.1532 -107.6545 63° Northeast  Level FlightAware Approximate
Mon 04:44:00 PM 24.1968 -107.5626 63° Northeast  Level FlightAware Approximate
Mon 04:45:00 PM 24.2402 -107.4706 63° Northeast  Level FlightAware Approximate
Mon 04:46:00 PM 24.2828 -107.3847 61° Northeast  Level FlightAware Approximate
Mon 04:47:00 PM 24.3301 -107.2903 61° Northeast  Level FlightAware Approximate
Mon 04:48:00 PM 24.3774 -107.1958 61° Northeast  Level FlightAware Approximate
Mon 04:49:00 PM 24.4246 -107.1013 61° Northeast  Level FlightAware Approximate
Mon 04:50:00 PM 24.4717 -107.0067 61° Northeast  Level FlightAware Approximate
Mon 04:51:00 PM 24.5161 -106.9105 64° Northeast  Level FlightAware Approximate
Mon 04:52:00 PM 24.5596 -106.8137 64° Northeast  Level FlightAware Approximate
Mon 04:53:00 PM 24.6031 -106.7169 64° Northeast  Level FlightAware Approximate
Mon 04:54:00 PM 24.6464 -106.6200 64° Northeast  Level FlightAware Approximate
Mon 04:55:00 PM 24.6897 -106.5230 64° Northeast  Level FlightAware Approximate
Mon 04:56:00 PM 24.7353 -106.4273 62° Northeast  Level FlightAware Approximate
Mon 04:57:00 PM 24.7814 -106.3319 62° Northeast  Level FlightAware Approximate
Mon 04:58:00 PM 24.8276 -106.2364 62° Northeast  Level FlightAware Approximate
Mon 04:59:00 PM 24.8736 -106.1409 62° Northeast  Level FlightAware Approximate
Mon 05:00:00 PM 24.9196 -106.0452 62° Northeast  Level FlightAware Approximate
Mon 05:01:00 PM 24.9640 -105.9486 64° Northeast  Level FlightAware Approximate
Mon 05:02:00 PM 25.0076 -105.8516 64° Northeast  Level FlightAware Approximate
Mon 05:03:00 PM 25.0511 -105.7545 64° Northeast  Level FlightAware Approximate
Mon 05:04:00 PM 25.0946 -105.6573 64° Northeast  Level FlightAware Approximate
Mon 05:05:00 PM 25.1381 -105.5601 64° Northeast  Level FlightAware Approximate
Mon 05:06:00 PM 25.1837 -105.4640 62° Northeast  Level FlightAware Approximate
Mon 05:07:00 PM 25.2301 -105.3684 62° Northeast  Level FlightAware Approximate
Mon 05:08:00 PM 25.2764 -105.2727 62° Northeast  Level FlightAware Approximate
Mon 05:09:00 PM 25.3227 -105.1769 62° Northeast  Level FlightAware Approximate
Mon 05:10:00 PM 25.3690 -105.0811 62° Northeast  Level FlightAware Approximate
Mon 05:11:00 PM 25.4144 -104.9848 64° Northeast  Level FlightAware Approximate
Mon 05:12:00 PM 25.4581 -104.8874 64° Northeast  Level FlightAware Approximate
Mon 05:13:00 PM 25.5018 -104.7900 64° Northeast  Level FlightAware Approximate
Mon 05:14:00 PM 25.5454 -104.6926 64° Northeast  Level FlightAware Approximate
Mon 05:15:00 PM 25.5890 -104.5950 64° Northeast  Level FlightAware Approximate
Mon 05:16:00 PM 25.6325 -104.4974 64° Northeast  Level FlightAware Approximate
Mon 05:17:00 PM 25.6759 -104.3997 64° Northeast  Level FlightAware Approximate
Mon 05:18:00 PM 25.7192 -104.3020 64° Northeast  Level FlightAware Approximate
Mon 05:19:00 PM 25.7625 -104.2041 64° Northeast  Level FlightAware Approximate
Mon 05:20:00 PM 25.8058 -104.1062 64° Northeast  Level FlightAware Approximate
Mon 05:21:00 PM 25.8489 -104.0083 64° Northeast  Level FlightAware Approximate
Mon 05:22:00 PM 25.8920 -103.9102 64° Northeast  Level FlightAware Approximate
Mon 05:23:00 PM 25.9351 -103.8121 64° Northeast  Level FlightAware Approximate
Mon 05:24:00 PM 25.9780 -103.7140 64° Northeast  Level FlightAware Approximate
Mon 05:25:00 PM 26.0209 -103.6157 64° Northeast  Level FlightAware Approximate
Mon 05:26:00 PM 26.0638 -103.5174 64° Northeast  Level FlightAware Approximate
Mon 05:27:00 PM 26.1065 -103.4190 64° Northeast  Level FlightAware Approximate
Mon 05:28:00 PM 26.1492 -103.3205 64° Northeast  Level FlightAware Approximate
Mon 05:29:00 PM 26.1919 -103.2219 64° Northeast  Level FlightAware Approximate
Mon 05:30:00 PM 26.2344 -103.1233 64° Northeast  Level FlightAware Approximate
Mon 05:31:00 PM 26.2769 -103.0247 64° Northeast  Level FlightAware Approximate
Mon 05:32:00 PM 26.3194 -102.9259 64° Northeast  Level FlightAware Approximate
Mon 05:33:00 PM 26.3617 -102.8271 64° Northeast  Level FlightAware Approximate
Mon 05:34:00 PM 26.4040 -102.7282 64° Northeast  Level FlightAware Approximate
Mon 05:35:00 PM 26.4463 -102.6292 65° Northeast  Level FlightAware Approximate
Mon 05:36:00 PM 26.4884 -102.5301 65° Northeast  Level FlightAware Approximate
Mon 05:37:00 PM 26.5305 -102.4310 65° Northeast  Level FlightAware Approximate
Mon 05:38:00 PM 26.5725 -102.3318 65° Northeast  Level FlightAware Approximate
Mon 05:39:00 PM 26.6145 -102.2325 65° Northeast  Level FlightAware Approximate
Mon 05:40:00 PM 26.6563 -102.1332 65° Northeast  Level FlightAware Approximate
Mon 05:41:00 PM 26.6982 -102.0338 65° Northeast  Level FlightAware Approximate
Mon 05:42:00 PM 26.7403 -101.9345 63° Northeast  Level FlightAware Approximate
Mon 05:43:00 PM 26.7845 -101.8363 63° Northeast  Level FlightAware Approximate
Mon 05:44:00 PM 26.8286 -101.7381 63° Northeast  Level FlightAware Approximate
Mon 05:45:00 PM 26.8727 -101.6397 63° Northeast  Level FlightAware Approximate
Mon 05:46:00 PM 26.9167 -101.5413 63° Northeast  Level FlightAware Approximate
Mon 05:47:00 PM 26.9568 -101.4411 74° East  Level FlightAware Approximate
Mon 05:48:00 PM 26.9846 -101.3355 74° East  Level FlightAware Approximate
Mon 05:49:00 PM 27.0123 -101.2298 74° East  Level FlightAware Approximate
Mon 05:50:00 PM 27.0400 -101.1240 74° East  Level FlightAware Approximate
Mon 05:51:00 PM 27.0676 -101.0182 74° East  Level FlightAware Approximate
Mon 05:52:00 PM 27.0951 -100.9124 74° East  Level FlightAware Approximate
Mon 05:53:00 PM 27.1225 -100.8065 74° East  Level FlightAware Approximate
Mon 05:54:00 PM 27.1499 -100.7005 74° East  Level FlightAware Approximate
Mon 05:55:00 PM 27.1733 -100.5934 76° East  Level FlightAware Approximate
Mon 05:55:21 PM 27.0375 -100.3006 75° East 464 534 35,000  Level Houston Center
Mon 05:56:00 PM 27.1966 -100.4861 76° East  Level FlightAware Approximate
Mon 05:56:23 PM 27.1014 -100.1753 60° Northeast 464 534 35,000  Level Houston Center
Mon 05:57:00 PM 27.2199 -100.3789 76° East  Level FlightAware Approximate
Mon 05:57:24 PM 27.1639 -100.0483 61° Northeast 465 535 35,000  Level Houston Center
Mon 05:58:00 PM 27.2444 -100.2720 74° East  Level FlightAware Approximate
Mon 05:58:26 PM 27.2275 -99.9228 60° Northeast 463 533 35,000  Level Houston Center
Mon 05:59:00 PM 27.2707 -100.1656 74° East  Level FlightAware Approximate
Mon 05:59:28 PM 27.3067 -99.7728 59° Northeast 465 535 35,000  Level Houston Center
Mon 06:00:00 PM 27.2968 -100.0591 75° East  Level FlightAware Approximate
Mon 06:00:30 PM 27.3825 -99.6553 54° Northeast 465 535 35,000  Level Houston Center
Mon 06:01:32 PM 27.4586 -99.5372 54° Northeast 466 536 35,000  Level Houston Center
Mon 06:02:34 PM 27.5350 -99.4183 54° Northeast 468 539 35,000  Level Houston Center
Mon 06:03:36 PM 27.6125 -99.2997 54° Northeast 466 536 35,000  Level Houston Center
Mon 06:04:38 PM 27.6900 -99.1781 54° Northeast 470 541 35,000  Level Houston Center
Mon 06:05:40 PM 27.7681 -99.0553 54° Northeast 473 544 35,000  Level Houston Center
Mon 06:06:42 PM 27.8450 -98.9336 54° Northeast 472 543 35,000  Level Houston Center
Mon 06:07:44 PM 27.9361 -98.7878 55° Northeast 471 542 35,000  Level Houston Center
Mon 06:08:46 PM 28.0122 -98.6661 55° Northeast 472 543 35,000  Level Houston Center
Mon 06:09:48 PM 28.0861 -98.5489 54° Northeast 462 532 35,000  Level Houston Center
Mon 06:10:50 PM 28.1592 -98.4322 55° Northeast 456 525 35,000  Level Houston Center
Mon 06:11:52 PM 28.2325 -98.3144 55° Northeast 457 526 35,000  Level Houston Center
Mon 06:12:54 PM 28.3061 -98.1969 55° Northeast 457 526 35,000  Level Houston Center
Mon 06:13:56 PM 28.3953 -98.0525 55° Northeast 464 534 35,000  Level Houston Center
Mon 06:14:58 PM 28.4606 -97.9492 54° Northeast 469 540 35,000  Level Houston Center
Mon 06:16:00 PM 28.5522 -97.8017 55° Northeast 476 548 35,000 -48 Level Houston Center
Mon 06:17:02 PM 28.6283 -97.6775 55° Northeast 477 549 34,900 -48 Descending Houston Center
Mon 06:18:04 PM 28.7047 -97.5564 54° Northeast 475 547 34,900 -435 Level Houston Center
Mon 06:19:06 PM 28.7800 -97.4331 55° Northeast 475 547 34,000 -919 Descending Houston Center
Mon 06:20:08 PM 28.8567 -97.3100 55° Northeast 478 550 33,000 -1,113 Descending Houston Center
Mon 06:21:10 PM 28.9331 -97.1833 55° Northeast 484 557 31,700 -1,645 Descending Houston Center
Mon 06:22:12 PM 29.0494 -97.0806 38° Northeast 457 526 29,600 -1,984 Descending Houston Center
Mon 06:23:14 PM 29.1547 -97.0144 29° Northeast 438 504 27,600 -1,984 Descending Houston Center
Mon 06:24:16 PM 29.2131 -96.8994 60° Northeast 425 489 25,500 -2,129 Descending Houston Center
Mon 06:25:18 PM 29.2653 -96.7842 63° Northeast 422 486 23,200 -2,468 Descending Houston Center
Mon 06:26:20 PM 29.3269 -96.6517 62° Northeast 403 464 20,400 -2,543 Descending Houston Center
Mon 06:26:50 PM 29.3511 -96.5981 63° Northeast 391 450 19,300 -2,032 Descending Houston Center
Mon 06:27:22 PM 29.3750 -96.5447 63° Northeast 385 443 18,300 -1,869 Descending Houston Center
Mon 06:27:51 PM 29.3972 -96.4972 62° Northeast 373 429 17,400 -1,742 Descending Houston Center
Mon 06:28:24 PM 29.4217 -96.4422 63° Northeast 370 426 16,500 -1,869 Descending Houston Center
Mon 06:28:52 PM 29.4486 -96.3836 62° Northeast 364 419 15,500 -1,742 Descending Houston Center
Mon 06:29:26 PM 29.4675 -96.3400 64° Northeast 364 419 14,700 -1,869 Descending Houston Center
Mon 06:29:53 PM 29.4947 -96.2828 61° Northeast 362 417 13,600 -1,839 Descending Houston Center
Mon 06:30:28 PM 29.5156 -96.2347 64° Northeast 372 428 12,800 -1,433 Descending Houston Center
Mon 06:31:00 PM 29.5494 -96.1614 62° Northeast 396 456 12,000 -885 Descending Houston Center
Mon 06:31:29 PM 29.5669 -96.1244 61° Northeast 389 448 11,900 -857 Descending Houston Center
Mon 06:31:56 PM 29.6014 -96.0594 59° Northeast 392 451 11,200 -1,548 Descending Houston Center
Mon 06:32:31 PM 29.6317 -95.9956 61° Northeast 389 448 10,300 -1,091 Descending Houston Center
Mon 06:33:02 PM 29.6603 -95.9400 59° Northeast 381 438 10,000 -290 Descending Houston Center
Mon 06:33:33 PM 29.6786 -95.9025 61° Northeast 382 440 10,000 97 Level Houston Center
Mon 06:34:04 PM 29.7139 -95.8328 60° Northeast 376 433 10,100  Climbing Houston Center
Mon 06:34:35 PM 29.7317 -95.7983 59° Northeast 378 435 10,000 -295 Descending Houston Center
Mon 06:35:05 PM 29.7600 -95.7383 61° Northeast 305 351 9,800 -871 Descending Houston Center
Mon 06:35:37 PM 29.7828 -95.6953 59° Northeast 301 346 9,100 -1,377 Descending Houston Center
Mon 06:36:06 PM 29.8031 -95.6564 59° Northeast 297 342 8,400 -1,452 Descending Houston Center
Mon 06:36:39 PM 29.8236 -95.6125 62° Northeast 295 339 7,600 -1,574 Descending Houston Center
Mon 06:37:07 PM 29.8439 -95.5722 60° Northeast 285 328 6,800 -1,355 Descending Houston Center
Mon 06:37:41 PM 29.8628 -95.5344 60° Northeast 283 326 6,200 -689 Descending Houston Center
Mon 06:38:08 PM 29.8831 -95.4953 59° Northeast 270 311 6,100 -194 Descending Houston Center
Mon 06:38:43 PM 29.8967 -95.4567 68° East 274 315 6,000 -98 Descending Houston Center
Mon 06:39:09 PM 29.8942 -95.4094 93° East 284 327 6,000  Level Houston Center
Mon 06:39:45 PM 29.8964 -95.3658 87° East 281 323 6,000  Level Houston Center
Mon 06:40:11 PM 29.8967 -95.3225 90° East 270 311 6,000  Level Houston Center
Mon 06:40:47 PM 29.8969 -95.2833 90° East 259 298 6,000 100 Level Houston Center
Mon 06:41:11 PM 29.8953 -95.2383 92° East 241 277 6,100  Climbing Houston Center
Mon 06:41:49 PM 29.8967 -95.2047 87° East 246 283 6,000 -643 Descending Houston Center
Mon 06:42:07 PM 29.8958 -95.1756 92° East 221 254 5,500 -1,258 Descending Houston Center
Mon 06:42:51 PM 29.8967 -95.1328 89° East 227 261 4,700 -1,522 Descending Houston Center
Mon 06:43:14 PM 29.9028 -95.0928 80° East 231 266 3,800 -1,935 Descending Houston Center
Mon 06:43:53 PM 29.9400 -95.0906 North 233 268 2,700 -1,672 Descending Houston Center
Mon 06:44:15 PM 29.9528 -95.1108 306° West 216 249 2,100 -492 Descending Houston Center
Mon 06:44:54 PM 29.9728 -95.1461 303° West 219 252 2,200 -97 Climbing Houston Center
Mon 06:45:17 PM 29.9772 -95.1706 282° West 179 206 2,000 -387 Descending Houston Center
Mon 06:45:56 PM 29.9786 -95.2017 273° West 195 224 1,800 -308 Descending Houston Center

Login

Don't have an account? Register now (free) for customized features, flight alerts, and more!